Time;durP1;ratioP1;P1;durP2;ratioP2;P2;SDS_P1;SDS_P2;PMS_P1;PMS_P2;Temp;Humidity;BMP_temperature;BMP_pressure;BME280_temperature;BME280_humidity;BME280_pressure;Samples;Min_cycle;Max_cycle;Signal;HPM_P1;HPM_P2
2021/01/30 00:02:03;;;;;;;10.77;6.18;;;;;;;-0.31;100.00;98760.72;5221581;28;20479;-77
2021/01/30 00:04:34;;;;;;;9.07;6.15;;;;;;;-0.36;100.00;98759.13;5222195;28;20028;-77
2021/01/30 00:07:05;;;;;;;10.52;6.80;;;;;;;-0.34;100.00;98760.81;5221675;28;20037;-78
2021/01/30 00:09:35;;;;;;;10.43;6.80;;;;;;;-0.48;100.00;98759.38;5222269;28;20052;-78
2021/01/30 00:12:06;;;;;;;11.15;6.97;;;;;;;-0.46;100.00;98767.88;5221552;28;20387;-77
2021/01/30 00:14:38;;;;;;;10.20;6.78;;;;;;;-0.56;100.00;98771.53;5221426;28;20104;-77
2021/01/30 00:17:08;;;;;;;11.35;7.43;;;;;;;-0.50;100.00;98774.81;5222418;28;20036;-77
2021/01/30 00:19:39;;;;;;;12.88;7.57;;;;;;;-0.43;100.00;98786.63;5220474;28;20017;-77
2021/01/30 00:22:13;;;;;;;11.20;7.15;;;;;;;-0.39;100.00;98784.84;5222339;28;20029;-77
2021/01/30 00:24:44;;;;;;;11.73;8.00;;;;;;;-0.17;100.00;98797.22;5224356;28;20435;-78
2021/01/30 00:27:20;;;;;;;11.85;6.82;;;;;;;-0.35;100.00;98794.16;5222283;28;20040;-78
2021/01/30 00:29:51;;;;;;;10.23;6.80;;;;;;;-0.42;100.00;98802.88;5222384;28;20028;-78
2021/01/30 00:32:22;;;;;;;11.05;7.20;;;;;;;-0.54;100.00;98803.13;5221641;28;20043;-78
2021/01/30 00:34:52;;;;;;;12.32;7.57;;;;;;;-0.44;100.00;98812.31;5221843;28;20025;-78
2021/01/30 00:37:25;;;;;;;12.88;7.07;;;;;;;-0.56;100.00;98815.97;5221494;28;20082;-78
2021/01/30 00:39:55;;;;;;;12.90;7.32;;;;;;;-0.61;100.00;98822.06;5222025;28;20052;-78
2021/01/30 00:42:26;;;;;;;13.65;8.00;;;;;;;-0.69;100.00;98840.16;5221601;28;20064;-78
2021/01/30 00:44:56;;;;;;;11.73;6.85;;;;;;;-0.65;100.00;98846.06;5221920;28;20094;-77
2021/01/30 00:47:26;;;;;;;11.18;7.22;;;;;;;-0.54;100.00;98850.13;5221397;28;20029;-77
2021/01/30 00:49:57;;;;;;;13.25;7.65;;;;;;;-0.52;100.00;98844.97;5221819;28;20590;-77
2021/01/30 00:52:27;;;;;;;12.73;7.18;;;;;;;-0.63;100.00;98859.69;5220427;28;20111;-79
2021/01/30 00:54:57;;;;;;;13.65;7.75;;;;;;;-0.55;100.00;98868.13;5222447;28;20404;-77
2021/01/30 00:57:27;;;;;;;13.00;7.22;;;;;;;-0.55;100.00;98874.06;5221305;28;20017;-78
2021/01/30 00:59:58;;;;;;;12.13;7.18;;;;;;;-0.48;100.00;98869.69;5221512;28;20021;-77
2021/01/30 01:02:28;;;;;;;12.23;7.53;;;;;;;-0.52;100.00;98878.31;5227117;28;20131;-77
2021/01/30 01:04:58;;;;;;;12.85;7.70;;;;;;;-0.62;100.00;98887.91;5218322;28;20040;-77
2021/01/30 01:07:28;;;;;;;11.77;7.40;;;;;;;-0.52;100.00;98893.69;5221618;28;20024;-77
2021/01/30 01:09:59;;;;;;;12.68;7.43;;;;;;;-0.58;100.00;98893.81;5225140;28;20028;-78
2021/01/30 01:12:29;;;;;;;12.18;7.25;;;;;;;-0.53;100.00;98915.91;5225390;28;20037;-77
2021/01/30 01:14:59;;;;;;;12.60;7.10;;;;;;;-0.52;100.00;98916.78;5205282;28;20025;-77
2021/01/30 01:17:30;;;;;;;12.25;6.90;;;;;;;-0.55;100.00;98934.78;5204039;28;20071;-78
2021/01/30 01:20:00;;;;;;;10.82;7.20;;;;;;;-0.49;100.00;98942.38;5205654;28;20070;-78
2021/01/30 01:22:31;;;;;;;11.40;7.28;;;;;;;-0.41;100.00;98953.34;5204801;28;20033;-81
2021/01/30 01:25:02;;;;;;;13.10;7.50;;;;;;;-0.49;100.00;98960.31;5216526;28;20409;-77
2021/01/30 01:27:32;;;;;;;12.38;7.00;;;;;;;-0.50;100.00;98959.50;5225097;28;20021;-77
2021/01/30 01:30:05;;;;;;;13.68;7.55;;;;;;;-0.53;100.00;98963.81;5226254;28;20039;-77
2021/01/30 01:32:36;;;;;;;12.05;6.80;;;;;;;-0.43;100.00;98965.34;5225321;28;20024;-78
2021/01/30 01:35:07;;;;;;;14.52;7.93;;;;;;;-0.51;100.00;98977.47;5224874;28;20036;-78
2021/01/30 01:37:37;;;;;;;12.68;7.55;;;;;;;-0.37;100.00;98975.50;5225413;28;20021;-78
2021/01/30 01:40:09;;;;;;;13.18;7.60;;;;;;;-0.40;100.00;98980.69;5225413;28;20486;-78
2021/01/30 01:42:39;;;;;;;12.10;6.88;;;;;;;-0.39;100.00;98997.78;5226255;28;20437;-77
2021/01/30 01:45:10;;;;;;;13.95;7.35;;;;;;;-0.34;100.00;99012.22;5225352;28;20040;-78
2021/01/30 01:47:46;;;;;;;15.00;7.30;;;;;;;-0.44;100.00;99009.81;5224898;28;20099;-77
2021/01/30 01:50:32;;;;;;;12.15;7.25;;;;;;;-0.46;100.00;99020.13;5225422;28;20061;-77
2021/01/30 01:53:15;;;;;;;12.57;7.30;;;;;;;-0.41;100.00;99012.34;5224800;28;20158;-78
2021/01/30 01:55:49;;;;;;;13.02;8.10;;;;;;;-0.36;100.00;99028.50;5225472;28;20017;-78
2021/01/30 01:58:22;;;;;;;12.82;7.30;;;;;;;-0.44;100.00;99038.03;5218891;28;20033;-77
2021/01/30 02:00:53;;;;;;;15.05;8.60;;;;;;;-0.42;100.00;99042.28;5224980;28;20048;-77
2021/01/30 02:03:26;;;;;;;13.40;7.90;;;;;;;-0.58;100.00;99048.53;5224577;28;20036;-78
2021/01/30 02:06:01;;;;;;;13.45;8.27;;;;;;;-0.57;100.00;99055.34;5224805;28;20037;-78
2021/01/30 02:08:33;;;;;;;;;;;;;;;-0.53;100.00;99066.41;5225393;28;20033;-78
2021/01/30 02:11:03;;;;;;;14.18;8.07;;;;;;;-0.53;100.00;99063.84;5224882;28;20608;-77
2021/01/30 02:13:40;;;;;;;14.43;8.68;;;;;;;-0.52;100.00;99062.97;5224536;28;20032;-77
2021/01/30 02:16:31;;;;;;;14.32;8.27;;;;;;;-0.55;100.00;99073.28;5225073;28;20032;-78
2021/01/30 02:19:51;;;;;;;14.20;8.45;;;;;;;-0.58;100.00;99071.59;5224680;28;20491;-79
2021/01/30 02:22:30;;;;;;;16.23;8.63;;;;;;;-0.52;100.00;99068.09;5225061;28;20029;-78
2021/01/30 02:25:38;;;;;;;13.38;8.38;;;;;;;-0.52;100.00;99073.25;5227997;28;20732;-78
2021/01/30 02:28:26;;;;;;;14.02;8.77;;;;;;;-0.48;100.00;99080.88;5222623;28;20446;-79
2021/01/30 02:31:21;;;;;;;13.70;8.63;;;;;;;-0.45;100.00;99082.53;5223870;28;20162;-78
2021/01/30 02:34:05;;;;;;;18.02;10.13;;;;;;;-0.53;100.00;99087.75;5225098;28;21403;-78
2021/01/30 02:36:54;;;;;;;15.52;9.52;;;;;;;-0.47;100.00;99107.34;5223402;28;20108;-78
2021/01/30 02:39:34;;;;;;;15.27;9.10;;;;;;;-0.54;100.00;99109.16;5224188;28;20040;-78
2021/01/30 02:42:22;;;;;;;13.95;8.68;;;;;;;-0.55;100.00;99111.75;5224284;28;20032;-78
2021/01/30 02:45:01;;;;;;;15.95;9.23;;;;;;;-0.65;100.00;99128.16;5224237;28;20033;-78
2021/01/30 02:47:36;;;;;;;12.32;7.90;;;;;;;-0.71;100.00;99129.06;5224149;28;20025;-78
2021/01/30 02:50:16;;;;;;;11.60;7.32;;;;;;;-0.75;100.00;99130.00;5224582;28;20249;-78
2021/01/30 02:52:50;;;;;;;11.32;7.40;;;;;;;-0.59;100.00;99140.91;5224178;28;20029;-78
2021/01/30 02:55:23;;;;;;;12.00;8.10;;;;;;;-0.60;100.00;99141.75;5223017;28;20087;-78
2021/01/30 02:57:55;;;;;;;12.38;7.55;;;;;;;-0.65;100.00;99151.22;5224609;28;20064;-80
2021/01/30 03:00:26;;;;;;;10.88;5.97;;;;;;;-0.62;100.00;99153.75;5224054;28;20032;-77
2021/01/30 03:02:56;;;;;;;12.57;6.78;;;;;;;-0.61;100.00;99152.88;5224037;28;20537;-79
2021/01/30 03:05:27;;;;;;;10.20;6.25;;;;;;;-0.78;100.00;99157.38;5223551;28;20029;-78
2021/01/30 03:08:06;;;;;;;11.02;6.78;;;;;;;-0.71;100.00;99153.88;5223439;28;20032;-78
2021/01/30 03:10:55;;;;;;;11.50;6.38;;;;;;;-0.54;100.00;99167.31;5223535;28;20028;-79
2021/01/30 03:13:41;;;;;;;9.27;5.47;;;;;;;-0.70;100.00;99176.09;5223357;28;20029;-79
2021/01/30 03:16:15;;;;;;;9.07;6.03;;;;;;;-0.70;100.00;99183.78;5223826;28;20031;-78
2021/01/30 03:19:00;;;;;;;10.50;5.90;;;;;;;-0.73;100.00;99181.25;5223512;28;20037;-78
2021/01/30 03:21:32;;;;;;;9.88;5.63;;;;;;;-0.64;100.00;99188.81;5223822;28;20675;-79
2021/01/30 03:24:04;;;;;;;9.13;5.97;;;;;;;-0.53;100.00;99199.78;5221535;28;20036;-80
2021/01/30 03:26:40;;;;;;;10.73;5.82;;;;;;;-0.70;100.00;99212.00;5226768;28;20589;-78
2021/01/30 03:29:13;;;;;;;10.07;6.13;;;;;;;-0.65;100.00;99205.94;5222703;28;20037;-78
2021/01/30 03:31:44;;;;;;;11.30;6.68;;;;;;;-0.73;100.00;99212.03;5223455;28;20491;-78
2021/01/30 03:34:16;;;;;;;11.32;6.97;;;;;;;-0.66;100.00;99219.63;5222667;28;20041;-78
2021/01/30 03:36:47;;;;;;;11.65;7.15;;;;;;;-0.69;100.00;99219.66;5223214;28;20116;-79
2021/01/30 03:39:18;;;;;;;12.38;7.20;;;;;;;-0.61;100.00;99214.41;5222778;28;20158;-79
2021/01/30 03:41:48;;;;;;;11.43;6.65;;;;;;;-0.71;100.00;99221.38;5223379;28;20398;-78
2021/01/30 03:44:18;;;;;;;12.27;6.80;;;;;;;-0.69;100.00;99223.94;5223564;28;20124;-79
2021/01/30 03:46:49;;;;;;;11.02;6.90;;;;;;;-0.63;100.00;99234.97;5223669;28;20525;-78
2021/01/30 03:49:19;;;;;;;12.25;7.40;;;;;;;-0.65;100.00;99240.97;5221611;28;20107;-78
2021/01/30 03:51:49;;;;;;;12.00;7.30;;;;;;;-0.70;100.00;99248.72;5222134;28;20028;-79
2021/01/30 03:54:19;;;;;;;12.75;7.20;;;;;;;-0.66;100.00;99254.66;5221906;28;20434;-78
2021/01/30 03:56:50;;;;;;;12.55;7.35;;;;;;;-0.82;100.00;99248.03;5222514;28;20124;-78
2021/01/30 03:59:21;;;;;;;12.00;7.70;;;;;;;-0.77;100.00;99246.25;5222548;28;20028;-78
2021/01/30 04:01:51;;;;;;;13.27;7.70;;;;;;;-0.70;100.00;99250.47;5222619;28;20055;-78
2021/01/30 04:04:21;;;;;;;13.63;7.43;;;;;;;-0.70;100.00;99263.28;5222274;28;20028;-78
2021/01/30 04:06:54;;;;;;;13.13;7.50;;;;;;;-0.76;100.00;99268.50;5222917;28;20163;-78
2021/01/30 04:09:24;;;;;;;13.65;7.90;;;;;;;-0.69;100.00;99260.69;5227608;28;20032;-78
2021/01/30 04:11:55;;;;;;;13.57;8.23;;;;;;;-0.58;100.00;99268.25;5222318;28;20640;-78
2021/01/30 04:14:26;;;;;;;14.57;8.77;;;;;;;-0.60;100.00;99269.97;5221850;28;20099;-78
2021/01/30 04:16:57;;;;;;;17.05;9.32;;;;;;;-0.49;100.00;99276.69;5222622;28;20036;-78
2021/01/30 04:19:27;;;;;;;18.05;9.48;;;;;;;-0.49;100.00;99291.22;5221974;28;20716;-78
2021/01/30 04:21:57;;;;;;;14.10;9.23;;;;;;;-0.42;100.00;99288.56;5222444;28;20029;-78
2021/01/30 04:24:28;;;;;;;16.17;9.00;;;;;;;-0.41;100.00;99292.81;5224981;28;20024;-78
2021/01/30 04:26:58;;;;;;;14.05;8.63;;;;;;;-0.56;100.00;99294.75;5222250;28;20118;-78
2021/01/30 04:29:28;;;;;;;15.85;8.90;;;;;;;-0.33;100.00;99303.84;5222115;28;20395;-78
2021/01/30 04:31:59;;;;;;;15.73;10.13;;;;;;;-0.36;100.00;99303.88;5221775;28;20021;-78
2021/01/30 04:34:29;;;;;;;15.07;9.65;;;;;;;-0.56;100.00;99302.44;5221453;28;20021;-78
2021/01/30 04:36:59;;;;;;;17.13;10.10;;;;;;;-0.41;100.00;99312.50;5221958;28;20033;-78
2021/01/30 04:39:30;;;;;;;15.75;10.15;;;;;;;-0.34;100.00;99309.00;5221979;28;20028;-78
2021/01/30 04:42:04;;;;;;;14.50;9.52;;;;;;;-0.36;100.00;99310.72;5221997;28;20673;-78
2021/01/30 04:44:52;;;;;;;16.40;10.13;;;;;;;-0.47;100.00;99317.69;5221936;28;20040;-78
2021/01/30 04:47:30;;;;;;;15.25;9.55;;;;;;;-0.26;100.00;99312.28;5222068;28;20032;-77
2021/01/30 04:50:12;;;;;;;15.40;9.45;;;;;;;-0.34;100.00;99316.69;5221974;28;20072;-78
2021/01/30 04:53:10;;;;;;;16.75;9.52;;;;;;;-0.43;100.00;99316.78;5222054;28;20033;-78
2021/01/30 04:55:53;;;;;;;15.40;9.93;;;;;;;-0.34;100.00;99319.25;5221462;28;20017;-78
2021/01/30 04:58:40;;;;;;;14.52;9.10;;;;;;;-0.42;100.00;99323.66;5216056;28;20062;-78
2021/01/30 05:01:25;;;;;;;15.10;9.80;;;;;;;-0.31;100.00;99329.47;5200790;28;20040;-78
2021/01/30 05:04:12;;;;;;;16.45;9.50;;;;;;;-0.36;100.00;99321.00;5220943;28;20025;-78
2021/01/30 05:07:08;;;;;;;15.38;9.27;;;;;;;-0.46;100.00;99325.38;5221684;28;20061;-78
2021/01/30 05:09:52;;;;;;;14.75;9.32;;;;;;;-0.45;100.00;99332.22;5220694;28;20091;-78
2021/01/30 05:12:39;;;;;;;16.08;10.02;;;;;;;-0.45;100.00;99334.78;5221825;28;20020;-78
2021/01/30 05:15:23;;;;;;;14.88;9.90;;;;;;;-0.59;100.00;99334.09;5221857;28;20024;-78
2021/01/30 05:17:59;;;;;;;19.42;11.38;;;;;;;-0.52;100.00;99340.84;5222224;28;20036;-78
2021/01/30 05:20:33;;;;;;;17.50;10.70;;;;;;;-0.47;100.00;99344.22;5220503;28;20021;-78
2021/01/30 05:23:06;;;;;;;18.02;11.48;;;;;;;-0.52;100.00;99329.75;5221685;28;20029;-79
2021/01/30 05:25:37;;;;;;;19.90;11.40;;;;;;;-0.48;100.00;99339.09;5221855;28;20037;-79
2021/01/30 05:28:10;;;;;;;20.42;12.38;;;;;;;-0.39;100.00;99341.56;5221431;28;20033;-79
2021/01/30 05:31:04;;;;;;;20.45;12.68;;;;;;;-0.37;100.00;99344.97;5221728;28;20494;-78
2021/01/30 05:33:43;;;;;;;21.95;12.02;;;;;;;-0.29;100.00;99345.69;5221306;28;20483;-79
2021/01/30 05:36:21;;;;;;;18.27;11.48;;;;;;;-0.42;100.00;99357.00;5221909;28;20055;-79
2021/01/30 05:38:58;;;;;;;20.63;11.80;;;;;;;-0.46;100.00;99355.31;5221714;28;20531;-79
2021/01/30 05:41:46;;;;;;;21.27;12.32;;;;;;;-0.36;100.00;99362.03;5221225;28;20116;-79
2021/01/30 05:44:38;;;;;;;19.05;11.90;;;;;;;-0.41;100.00;99363.81;5221729;28;20029;-78
2021/01/30 05:47:19;;;;;;;20.55;12.30;;;;;;;-0.46;100.00;99368.13;5223784;28;20082;-78
2021/01/30 05:49:56;;;;;;;20.25;12.68;;;;;;;-0.43;100.00;99375.78;5225453;28;20044;-79
2021/01/30 05:52:30;;;;;;;18.88;12.13;;;;;;;-0.30;100.00;99372.22;5223737;28;20033;-79
2021/01/30 05:55:01;;;;;;;19.35;12.48;;;;;;;-0.23;100.00;99384.13;5225294;28;20041;-79
2021/01/30 05:57:31;;;;;;;22.65;13.18;;;;;;;-0.10;100.00;99380.53;5224885;28;20499;-78
2021/01/30 06:00:03;;;;;;;22.20;13.60;;;;;;;-0.09;100.00;99389.94;5222801;28;20075;-80
2021/01/30 06:02:33;;;;;;;22.48;13.10;;;;;;;-0.12;100.00;99387.41;5225052;28;20025;-78
2021/01/30 06:05:17;;;;;;;21.17;12.88;;;;;;;-0.10;100.00;99401.06;5224082;28;20387;-79
2021/01/30 06:07:48;;;;;;;20.35;12.45;;;;;;;-0.20;100.00;99394.38;5225017;28;20025;-79
2021/01/30 06:10:29;;;;;;;21.48;13.68;;;;;;;-0.16;100.00;99396.03;5224956;28;20017;-79
2021/01/30 06:13:17;;;;;;;23.25;14.63;;;;;;;-0.08;100.00;99399.38;5225222;28;20047;-80
2021/01/30 06:15:53;;;;;;;22.75;13.10;;;;;;;-0.11;100.00;99404.50;5224541;28;20021;-79
2021/01/30 06:18:29;;;;;;;22.45;13.40;;;;;;;-0.15;100.00;99397.72;5225031;28;20059;-80
2021/01/30 06:21:03;;;;;;;23.55;13.10;;;;;;;-0.29;100.00;99403.03;5224735;28;20471;-79
2021/01/30 06:23:34;;;;;;;19.75;12.05;;;;;;;-0.22;100.00;99411.50;5224745;28;20306;-79
2021/01/30 06:26:18;;;;;;;21.20;12.93;;;;;;;-0.15;100.00;99413.13;5224525;28;20021;-79
2021/01/30 06:29:00;;;;;;;20.52;12.20;;;;;;;-0.12;100.00;99413.94;5223578;28;20021;-80
2021/01/30 06:31:39;;;;;;;19.42;12.65;;;;;;;-0.11;100.00;99418.22;5224123;28;20033;-79
2021/01/30 06:34:19;;;;;;;19.80;12.07;;;;;;;-0.15;100.00;99418.25;5223273;28;20025;-79
2021/01/30 06:36:52;;;;;;;20.75;12.35;;;;;;;-0.12;100.00;99424.22;5224447;28;20036;-79
2021/01/30 06:39:30;;;;;;;22.27;12.68;;;;;;;-0.11;100.00;99427.59;5225059;28;20479;-80
2021/01/30 06:42:07;;;;;;;20.05;12.55;;;;;;;-0.04;100.00;99431.81;5225548;28;20132;-80
2021/01/30 06:44:39;;;;;;;20.27;13.02;;;;;;;-0.05;100.00;99430.13;5224846;28;20061;-80
2021/01/30 06:47:19;;;;;;;21.70;13.93;;;;;;;-0.09;100.00;99433.56;5225528;28;20020;-80
2021/01/30 06:49:54;;;;;;;25.05;13.15;;;;;;;-0.06;100.00;99439.53;5225506;28;20025;-80
2021/01/30 06:52:31;;;;;;;21.38;12.75;;;;;;;-0.13;100.00;99448.19;5226176;28;20037;-80
2021/01/30 06:55:05;;;;;;;21.58;13.35;;;;;;;0.01;100.00;99446.31;5224049;28;20029;-80
2021/01/30 06:58:00;;;;;;;23.55;13.55;;;;;;;0.01;100.00;99449.72;5224741;28;20045;-80
2021/01/30 07:00:34;;;;;;;20.92;12.95;;;;;;;0.03;100.00;99449.69;5220635;28;20024;-80
2021/01/30 07:03:22;;;;;;;19.33;12.57;;;;;;;0.02;100.00;99453.13;5225103;28;20044;-81
2021/01/30 07:06:18;;;;;;;21.95;12.93;;;;;;;0.01;100.00;99452.28;5225401;28;20055;-80
2021/01/30 07:09:05;;;;;;;;;;;;;;;0.05;100.00;99448.78;5224968;28;20029;-79
2021/01/30 07:11:59;;;;;;;20.88;12.85;;;;;;;0.01;100.00;99457.41;5225310;28;19952;-79
2021/01/30 07:14:32;;;;;;;20.42;12.85;;;;;;;0.06;100.00;99458.19;5223803;28;20051;-79
2021/01/30 07:17:06;;;;;;;23.00;13.40;;;;;;;0.10;100.00;99453.88;5223985;28;20479;-79
2021/01/30 07:19:55;;;;;;;21.85;13.25;;;;;;;0.09;100.00;99453.06;5223783;28;20032;-80
2021/01/30 07:22:55;;;;;;;20.98;12.88;;;;;;;0.24;100.00;99462.28;5224028;28;20143;-79
2021/01/30 07:25:36;;;;;;;20.75;12.82;;;;;;;0.12;100.00;99460.72;5223587;28;20383;-79
2021/01/30 07:28:26;;;;;;;21.23;13.32;;;;;;;0.20;100.00;99458.06;5222288;28;20021;-80
2021/01/30 07:31:07;;;;;;;20.60;13.20;;;;;;;0.25;100.00;99463.97;5223998;28;20136;-80
2021/01/30 07:33:50;;;;;;;23.13;13.13;;;;;;;0.31;100.00;99475.03;5223630;28;20024;-79
2021/01/30 07:36:28;;;;;;;19.15;12.90;;;;;;;0.38;100.00;99471.50;5206601;28;20380;-79
2021/01/30 07:39:17;;;;;;;19.90;12.32;;;;;;;0.24;100.00;99475.94;5223361;28;20033;-79
2021/01/30 07:41:56;;;;;;;20.58;13.30;;;;;;;0.20;100.00;99482.00;5202514;28;20089;-79
2021/01/30 07:44:33;;;;;;;19.88;12.85;;;;;;;0.27;100.00;99473.38;5205703;28;20048;-79
2021/01/30 07:47:18;;;;;;;19.10;13.27;;;;;;;0.32;100.00;99478.44;5223257;28;20242;-79
2021/01/30 07:49:52;;;;;;;20.38;12.75;;;;;;;0.39;100.00;99486.03;5222954;28;20597;-79
2021/01/30 07:52:30;;;;;;;20.75;13.25;;;;;;;0.43;100.00;99482.59;5221376;28;20036;-79
2021/01/30 07:55:02;;;;;;;19.35;12.75;;;;;;;0.46;100.00;99485.13;5223140;28;20025;-79
2021/01/30 07:58:07;;;;;;;21.83;13.75;;;;;;;0.45;100.00;99485.97;5222159;28;20024;-79
2021/01/30 08:01:01;;;;;;;23.38;13.68;;;;;;;0.50;100.00;99481.63;5219607;28;20037;-79
2021/01/30 08:03:34;;;;;;;19.55;12.52;;;;;;;0.42;100.00;99477.47;5221765;28;20025;-80
2021/01/30 08:06:33;;;;;;;17.77;12.18;;;;;;;0.34;100.00;99472.41;5223846;28;20025;-79
2021/01/30 08:09:20;;;;;;;42.50;20.15;;;;;;;0.22;100.00;99472.56;5221800;28;20428;-79
2021/01/30 08:11:58;;;;;;;34.58;19.10;;;;;;;0.31;100.00;99480.16;5221138;28;20020;-79
2021/01/30 08:14:39;;;;;;;29.38;16.35;;;;;;;0.40;100.00;99482.59;5221320;28;20025;-79
2021/01/30 08:17:24;;;;;;;31.83;17.52;;;;;;;0.47;100.00;99484.25;5222159;28;20119;-79
2021/01/30 08:20:08;;;;;;;68.85;33.10;;;;;;;0.44;100.00;99489.44;5222498;28;20033;-79
2021/01/30 08:22:49;;;;;;;43.38;23.38;;;;;;;0.48;100.00;99493.66;5222363;28;20033;-79
2021/01/30 08:25:27;;;;;;;22.48;13.95;;;;;;;0.66;100.00;99490.84;5222282;28;20111;-79
2021/01/30 08:28:13;;;;;;;20.30;13.65;;;;;;;0.92;100.00;99498.19;5222393;28;20520;-79
2021/01/30 08:30:43;;;;;;;19.60;13.30;;;;;;;0.93;100.00;99494.72;5221884;28;20028;-79
2021/01/30 08:33:14;;;;;;;22.63;12.68;;;;;;;1.06;100.00;99491.94;5221296;28;20029;-79
2021/01/30 08:35:56;;;;;;;18.55;11.70;;;;;;;1.23;100.00;99487.41;5222123;28;20079;-79
2021/01/30 08:38:32;;;;;;;18.50;12.02;;;;;;;1.26;100.00;99492.47;5221035;28;20057;-79
2021/01/30 08:41:29;;;;;;;18.45;12.13;;;;;;;1.21;100.00;99490.88;5221501;28;20505;-79
2021/01/30 08:43:59;;;;;;;19.08;11.90;;;;;;;1.19;100.00;99493.47;5222290;28;20040;-79
2021/01/30 08:46:34;;;;;;;19.88;12.15;;;;;;;1.23;100.00;99504.56;5222032;28;20387;-81
2021/01/30 08:49:16;;;;;;;19.13;12.10;;;;;;;1.02;100.00;99508.31;5221770;28;20526;-81
2021/01/30 08:52:04;;;;;;;25.00;15.10;;;;;;;0.80;100.00;99513.75;5222250;28;20123;-82
2021/01/30 08:54:42;;;;;;;21.05;12.63;;;;;;;0.94;100.00;99517.88;5221970;28;20025;-79
2021/01/30 08:57:30;;;;;;;20.50;13.88;;;;;;;1.00;100.00;99522.03;5221016;28;20029;-81
2021/01/30 09:00:12;;;;;;;19.25;12.00;;;;;;;1.13;100.00;99519.28;5221109;28;20159;-82
2021/01/30 09:02:42;;;;;;;16.95;11.27;;;;;;;1.00;100.00;99522.91;5221033;28;20109;-79
2021/01/30 09:05:24;;;;;;;19.07;12.73;;;;;;;1.30;100.00;99516.44;5220603;28;20108;-81
2021/01/30 09:07:56;;;;;;;18.23;12.25;;;;;;;1.33;100.00;99522.41;5222019;28;20358;-77
2021/01/30 09:10:33;;;;;;;19.17;13.02;;;;;;;1.38;100.00;99518.03;5222165;28;20033;-79
2021/01/30 09:13:08;;;;;;;20.15;13.23;;;;;;;1.29;100.00;99518.19;5221656;28;20036;-78
2021/01/30 09:15:41;;;;;;;18.77;12.23;;;;;;;1.33;100.00;99527.56;5219827;28;20021;-78
2021/01/30 09:18:36;;;;;;;20.60;13.32;;;;;;;1.40;100.00;99524.00;5221646;28;20753;-78
2021/01/30 09:21:28;;;;;;;19.90;12.32;;;;;;;1.72;100.00;99523.50;5220949;28;20075;-78
2021/01/30 09:24:32;;;;;;;18.02;11.63;;;;;;;1.67;100.00;99533.00;5223641;28;20017;-78
2021/01/30 09:27:17;;;;;;;16.48;10.98;;;;;;;1.73;100.00;99533.75;5216246;28;20636;-80
2021/01/30 09:29:49;;;;;;;13.50;8.57;;;;;;;1.87;100.00;99529.19;5225247;28;20356;-79
2021/01/30 09:32:42;;;;;;;16.85;10.60;;;;;;;1.79;100.00;99531.06;5220379;28;20268;-81
2021/01/30 09:35:22;;;;;;;17.23;10.25;;;;;;;1.58;100.00;99539.13;5225522;28;20104;-79
2021/01/30 09:37:52;;;;;;;15.40;9.50;;;;;;;1.60;100.00;99541.69;5226950;28;20025;-78
2021/01/30 09:40:28;;;;;;;16.35;9.90;;;;;;;1.70;100.00;99535.50;5224222;28;20047;-78
2021/01/30 09:43:05;;;;;;;36.42;16.60;;;;;;;1.71;100.00;99537.25;5223045;28;20174;-78
2021/01/30 09:45:37;;;;;;;16.42;10.48;;;;;;;1.56;100.00;99530.59;5221385;28;20113;-78
2021/01/30 09:48:12;;;;;;;49.83;22.02;;;;;;;1.43;100.00;99529.09;5223868;28;20095;-78
2021/01/30 09:51:10;;;;;;;62.73;22.80;;;;;;;1.58;100.00;99534.00;5224598;28;20028;-78
2021/01/30 09:53:47;;;;;;;48.08;19.95;;;;;;;2.26;100.00;99531.03;5224447;28;20098;-79
2021/01/30 09:56:19;;;;;;;30.02;15.05;;;;;;;2.76;98.82;99533.44;5222452;28;20688;-79
2021/01/30 09:58:56;;;;;;;31.75;16.70;;;;;;;2.54;96.86;99538.19;5222643;28;20402;-79
2021/01/30 10:01:35;;;;;;;23.58;12.77;;;;;;;2.70;96.31;99534.41;5224170;28;20108;-80
2021/01/30 10:04:22;;;;;;;22.33;13.25;;;;;;;2.75;96.77;99539.50;5223011;28;20116;-79
2021/01/30 10:07:06;;;;;;;40.15;18.65;;;;;;;2.87;95.34;99534.09;5220467;28;20066;-78
2021/01/30 10:09:39;;;;;;;30.48;14.90;;;;;;;3.69;93.63;99535.56;5221560;28;20035;-80
2021/01/30 10:12:12;;;;;;;17.25;10.00;;;;;;;3.23;93.74;99533.25;5224810;28;20053;-80
2021/01/30 10:14:47;;;;;;;13.93;9.20;;;;;;;3.15;94.75;99537.72;5226729;28;20028;-79
2021/01/30 10:17:38;;;;;;;24.03;12.80;;;;;;;3.53;93.36;99535.13;5230412;28;20742;-80
2021/01/30 10:20:10;;;;;;;17.63;10.13;;;;;;;3.50;92.57;99536.03;5224459;28;20724;-80
2021/01/30 10:22:48;;;;;;;13.05;8.73;;;;;;;3.16;93.20;99540.28;5224462;28;20109;-79
2021/01/30 10:25:25;;;;;;;12.05;8.10;;;;;;;2.97;94.03;99539.00;5225421;28;20442;-78
2021/01/30 10:28:21;;;;;;;13.50;8.98;;;;;;;2.92;94.20;99540.84;5224787;28;20361;-79
2021/01/30 10:30:52;;;;;;;12.07;8.20;;;;;;;3.25;94.32;99545.25;5224936;28;20037;-79
2021/01/30 10:33:22;;;;;;;10.05;6.97;;;;;;;3.39;93.29;99539.78;5224542;28;20032;-78
2021/01/30 10:35:53;;;;;;;10.65;7.60;;;;;;;3.45;94.06;99539.63;5224782;28;20028;-78
2021/01/30 10:38:26;;;;;;;16.17;10.00;;;;;;;3.58;92.81;99540.13;5225257;28;20021;-80
2021/01/30 10:41:01;;;;;;;13.65;8.77;;;;;;;3.24;93.60;99532.38;5226195;28;20036;-78
2021/01/30 10:43:37;;;;;;;11.52;7.47;;;;;;;3.42;94.98;99537.09;5219841;28;20671;-80
2021/01/30 10:46:21;;;;;;;10.85;7.30;;;;;;;3.61;91.55;99536.63;5225772;28;20113;-79
2021/01/30 10:48:52;;;;;;;10.27;6.88;;;;;;;3.65;91.27;99536.50;5226890;28;20086;-80
2021/01/30 10:51:26;;;;;;;11.25;7.10;;;;;;;3.71;92.50;99538.09;5225543;28;20101;-79
2021/01/30 10:54:22;;;;;;;11.20;7.10;;;;;;;3.58;91.62;99538.44;5224018;28;20463;-79
2021/01/30 10:57:02;;;;;;;9.43;5.97;;;;;;;3.35;92.94;99541.56;5220270;28;20080;-80
2021/01/30 10:59:54;;;;;;;10.32;6.20;;;;;;;3.20;94.54;99543.66;5221898;28;20033;-79
2021/01/30 11:02:40;;;;;;;8.40;5.63;;;;;;;3.26;94.63;99546.94;5227704;28;20112;-79
2021/01/30 11:05:21;;;;;;;8.15;5.53;;;;;;;2.90;96.02;99550.34;5222189;28;20029;-78
2021/01/30 11:08:01;;;;;;;9.05;5.82;;;;;;;2.55;94.58;99551.94;5222792;28;20721;-78
2021/01/30 11:10:37;;;;;;;8.50;5.45;;;;;;;2.38;96.39;99551.44;5223320;28;20025;-78
2021/01/30 11:13:18;;;;;;;9.32;5.80;;;;;;;2.17;96.68;99547.53;5221768;28;20028;-78
2021/01/30 11:15:49;;;;;;;11.25;7.28;;;;;;;1.72;100.00;99544.09;5223333;28;20021;-78
2021/01/30 11:18:28;;;;;;;11.82;7.00;;;;;;;2.09;99.91;99548.53;5223101;28;20094;-78
2021/01/30 11:20:59;;;;;;;10.05;6.75;;;;;;;1.93;98.34;99544.53;5221039;28;20610;-79
2021/01/30 11:23:47;;;;;;;8.98;5.63;;;;;;;2.32;96.31;99542.09;5223056;28;20023;-79
2021/01/30 11:26:26;;;;;;;5.95;3.85;;;;;;;2.53;93.84;99538.25;5220659;28;20037;-79
2021/01/30 11:28:57;;;;;;;6.72;4.20;;;;;;;2.14;93.97;99537.28;5224544;28;20242;-79
2021/01/30 11:31:28;;;;;;;8.57;4.68;;;;;;;2.08;95.05;99531.38;5223945;28;20028;-78
2021/01/30 11:33:59;;;;;;;4.40;3.20;;;;;;;1.74;95.98;99532.84;5223779;28;20111;-79
2021/01/30 11:36:29;;;;;;;4.38;2.92;;;;;;;1.77;96.91;99537.94;5224227;28;20104;-78
2021/01/30 11:39:03;;;;;;;7.97;3.30;;;;;;;1.81;96.96;99537.06;5224356;28;20029;-78
2021/01/30 11:41:33;;;;;;;8.27;3.40;;;;;;;1.57;98.18;99540.00;5224888;28;20407;-79
2021/01/30 11:44:03;;;;;;;5.22;3.55;;;;;;;1.82;100.00;99528.44;5223436;28;20028;-78
2021/01/30 11:46:33;;;;;;;4.82;2.45;;;;;;;1.78;95.78;99531.94;5219314;28;20045;-79
2021/01/30 11:49:04;;;;;;;5.97;1.90;;;;;;;1.84;94.45;99526.69;5224297;28;20036;-78
2021/01/30 11:51:34;;;;;;;3.28;2.40;;;;;;;1.39;94.74;99530.03;5223231;28;20028;-78
2021/01/30 11:54:04;;;;;;;3.15;2.00;;;;;;;1.56;95.91;99529.75;5222866;28;20047;-78
2021/01/30 11:56:35;;;;;;;3.10;2.10;;;;;;;1.65;96.56;99525.31;5223639;28;20067;-79
2021/01/30 11:59:07;;;;;;;3.10;2.05;;;;;;;1.58;95.65;99533.16;5222548;28;20463;-79
2021/01/30 12:01:39;;;;;;;4.10;2.42;;;;;;;1.28;95.77;99529.34;5223776;28;20033;-78
2021/01/30 12:04:10;;;;;;;3.67;1.80;;;;;;;1.38;95.58;99520.59;5223660;28;20025;-79
2021/01/30 12:06:41;;;;;;;3.08;1.90;;;;;;;1.11;97.05;99530.47;5224527;28;20031;-80